Terminal Aerodrome Forecast
Issued by NWS Grand Junction, CO

Home | Current Version | Previous Version | Text Only | Print | Product List | Glossary On
Versions: 1 2 3 4 5 6 7 8 9 10 11 12 13 14 15 16 17 18 19 20 21 22 23 24 25 26
000
FTUS45 KGJT 201142
TAFGJT
TAF
KGJT 201142Z 2012/2112 VRB03KT 1/2SM -SHSN FG OVC007
     FM201500 VRB03KT 2SM -SHSN OVC008
     FM201800 29004KT 4SM -SHSN BR SCT008 OVC015
     FM202100 30006KT P6SM VCSH SCT015 BKN025
     FM210300 12008KT 4SM -SHSN BR BKN025
     FM210500 12008KT 2SM -SN OVC015=

USA.gov is the U.S. government's official web portal to all federal, state and local government web resources and services.